Stations météo

réclame
Mon MeteoGroup
La Seo D'Urgell, Espagne (8115): Température de l'air & dewpoint: 12.01.2020 14:00:00 - 18.01.2020 14:00:00 (CET)La Seo D'Urgell, Espagne (8115): Vitesse du vent & gusts: 12.01.2020 14:00:00 - 18.01.2020 14:00:00 (CET)La Seo D'Urgell, Espagne (8115): Direction du vent: 12.01.2020 14:00:00 - 18.01.2020 14:00:00 (CET)La Seo D'Urgell, Espagne (8115): Quantités de précipitations: 12.01.2020 14:00:00 - 18.01.2020 14:00:00 (CET)
Date & Time tt [°C] td [°C] ff [km/h] ff [knt] fx [km/h] fx [knt] dd rr [mm]
18.01.2020 14:00:00 - - - - - - - -
18.01.2020 13:00:00 6,3 -4,5 2 1 6 3 ESE -
18.01.2020 12:00:00 3,4 -3,3 1 0 5 3 ENE 0,0
18.01.2020 11:00:00 1,6 -2,7 2 1 8 4 ESE 0,0
18.01.2020 10:00:00 0,2 -2,5 1 1 8 4 W 0,0
18.01.2020 09:00:00 -1,3 -3,0 2 1 5 3 E 0,0
18.01.2020 08:00:00 -1,9 -3,3 2 1 6 3 SW 0,0
18.01.2020 07:00:00 -2,5 -3,9 1 1 5 3 S -
18.01.2020 06:00:00 -2,8 -4,2 1 1 5 3 SSW 0,0
18.01.2020 05:00:00 -3,2 -4,5 3 1 5 3 N 0,0
18.01.2020 04:00:00 -3,5 -5,1 0 0 6 4 WSW 0,0
18.01.2020 03:00:00 -3,0 -4,5 1 1 5 3 SSW 0,0
18.01.2020 02:00:00 -2,7 -4,5 1 0 5 3 E 0,0
18.01.2020 01:00:00 -2,1 -4,2 2 1 6 4 ENE -
18.01.2020 00:00:00 -1,6 -3,9 1 1 5 3 SW 0,0
17.01.2020 23:00:00 -1,1 -4,2 0 0 4 2 WNW 0,0
17.01.2020 22:00:00 0,0 -4,2 0 0 7 4 S 0,0
17.01.2020 21:00:00 1,3 -4,5 0 0 14 8 SSE 0,0
17.01.2020 20:00:00 2,3 -4,2 1 1 7 4 SW 0,0
17.01.2020 19:00:00 5,2 -5,1 4 2 18 10 NNE -
17.01.2020 18:00:00 8,4 -4,8 6 3 25 13 SW 0,0
17.01.2020 17:00:00 9,4 -2,0 4 2 12 7 WNW 0,0
17.01.2020 16:00:00 10,0 -1,4 6 4 33 18 W 0,0
17.01.2020 15:00:00 12,6 -0,3 9 5 32 18 SW 0,0
17.01.2020 14:00:00 14,0 0,6 10 5 22 12 SSW 0,0
17.01.2020 13:00:00 9,6 2,3 5 3 9 5 ENE -
17.01.2020 12:00:00 5,1 2,9 3 2 8 5 S 0,0
17.01.2020 11:00:00 2,0 1,5 1 1 5 3 E 0,0
17.01.2020 10:00:00 -0,7 -1,2 3 1 5 3 NE 0,0
17.01.2020 09:00:00 -2,0 -2,5 0 0 4 2 E 0,0
17.01.2020 08:00:00 -1,3 -1,7 0 0 6 3 W 0,0
17.01.2020 07:00:00 -0,7 -1,2 1 1 8 4 SSW -
17.01.2020 06:00:00 -0,7 -1,2 2 1 8 4 SSW 0,0
17.01.2020 05:00:00 -1,0 -1,4 0 0 5 3 NNE 0,0
17.01.2020 04:00:00 -1,3 -2,0 0 0 5 3 N 0,0
17.01.2020 03:00:00 -1,4 -2,0 2 1 5 3 NNE 0,0
17.01.2020 02:00:00 -1,0 -1,7 1 0 4 2 S 0,0
17.01.2020 01:00:00 -0,8 -1,4 0 0 4 2 E -
17.01.2020 00:00:00 -0,9 -1,7 0 0 4 2 E 0,0
16.01.2020 23:00:00 -0,6 -1,7 1 0 4 2 W 0,0
16.01.2020 22:00:00 -0,6 -2,0 1 1 4 2 SSE 0,0
16.01.2020 21:00:00 -0,1 -2,0 0 0 4 2 ENE 0,0
16.01.2020 20:00:00 0,7 -2,0 1 0 4 2 E 0,0
16.01.2020 19:00:00 2,1 -2,2 0 0 4 2 S -
16.01.2020 18:00:00 5,0 -2,7 0 0 6 3 SSE 0,0
16.01.2020 17:00:00 11,5 -2,5 3 1 6 3 SW 0,0
16.01.2020 16:00:00 11,9 -3,6 3 2 6 3 SSW 0,0
16.01.2020 15:00:00 13,2 -2,7 1 1 7 4 SE 0,0
16.01.2020 14:00:00 10,7 -3,0 4 2 8 4 SSW 0,0
16.01.2020 13:00:00 7,2 -1,0 3 2 7 4 SW -
16.01.2020 12:00:00 1,9 -1,2 2 1 6 3 SW 0,0
16.01.2020 11:00:00 -1,1 -1,7 1 1 4 2 S 0,0
16.01.2020 10:00:00 -3,9 -4,5 1 1 3 2 NE 0,0
16.01.2020 09:00:00 -5,8 -6,4 0 0 2 1 N 0,0
16.01.2020 08:00:00 -5,8 -6,4 0 0 2 1 N 0,0
16.01.2020 07:00:00 -5,3 -5,7 0 0 2 1 NNE -
16.01.2020 06:00:00 -5,1 -5,7 0 0 3 2 ESE 0,0
16.01.2020 05:00:00 -4,8 -5,4 0 0 2 1 NW 0,0
16.01.2020 04:00:00 -4,3 -5,1 0 0 2 1 N 0,0
16.01.2020 03:00:00 -4,0 -4,8 1 0 3 2 NNE 0,0
16.01.2020 02:00:00 -3,5 -4,5 0 0 4 2 NW 0,0
16.01.2020 01:00:00 -3,0 -3,9 0 0 4 2 W -
16.01.2020 00:00:00 -2,7 -3,9 0 0 4 2 NNE 0,0
15.01.2020 23:00:00 -2,3 -3,6 0 0 5 3 NE 0,0
15.01.2020 22:00:00 -1,9 -3,6 1 0 5 3 NE 0,0
15.01.2020 21:00:00 -1,4 -3,6 0 0 6 3 N 0,0
15.01.2020 20:00:00 -0,8 -3,6 1 1 3 2 N 0,0
15.01.2020 19:00:00 0,8 -3,9 1 1 3 1 ENE -
15.01.2020 18:00:00 3,2 -4,2 0 0 4 2 NE 0,0
15.01.2020 17:00:00 8,9 -5,1 2 1 8 5 SW 0,0
15.01.2020 16:00:00 9,4 -6,0 2 1 7 4 WSW 0,0
15.01.2020 15:00:00 9,4 -5,4 2 1 6 3 SW 0,0
15.01.2020 14:00:00 8,0 -4,5 2 1 5 3 S 0,0
15.01.2020 13:00:00 4,0 -2,7 3 1 8 4 S -
15.01.2020 12:00:00 -0,2 -3,0 1 1 4 2 S 0,0
15.01.2020 11:00:00 -1,7 -2,7 2 1 5 3 SW 0,0
15.01.2020 10:00:00 -3,7 -4,2 1 1 4 2 NE 0,0
15.01.2020 09:00:00 -5,8 -6,4 0 0 3 2 SSW 0,0
15.01.2020 08:00:00 -6,1 -6,7 0 0 3 2 SW 0,0
15.01.2020 07:00:00 -6,0 -6,4 0 0 3 1 SSW -
15.01.2020 06:00:00 -5,6 -6,0 1 1 5 3 NNE 0,0
15.01.2020 05:00:00 -5,4 -6,0 1 1 3 2 NNE 0,0
15.01.2020 04:00:00 -5,1 -5,7 0 0 4 2 NNW 0,0
15.01.2020 03:00:00 -4,8 -5,4 0 0 2 1 ENE 0,0
15.01.2020 02:00:00 -4,7 -5,4 0 0 4 2 NNW 0,0
15.01.2020 01:00:00 -4,3 -5,4 0 0 2 1 S -
15.01.2020 00:00:00 -3,7 -4,8 0 0 2 1 ENE 0,0
14.01.2020 23:00:00 -3,1 -4,5 0 0 2 1 NNE 0,0
14.01.2020 22:00:00 -2,6 -4,2 0 0 3 1 SSE 0,0
14.01.2020 21:00:00 -1,6 -3,9 1 0 3 2 ENE 0,0
14.01.2020 20:00:00 -0,5 -3,6 1 0 3 2 SSE 0,0
14.01.2020 19:00:00 1,1 -3,9 1 1 4 2 ENE -
14.01.2020 18:00:00 4,0 -5,7 0 0 6 3 SSW 0,0
14.01.2020 17:00:00 10,1 -6,0 3 2 5 3 SSW 0,0
14.01.2020 16:00:00 11,0 -6,7 3 1 9 5 SSW 0,0
14.01.2020 15:00:00 13,0 -5,7 3 2 7 4 SSW 0,0
14.01.2020 14:00:00 11,5 -4,2 3 1 7 4 SSW 0,0
14.01.2020 13:00:00 7,6 -3,9 1 1 7 4 SSW -
14.01.2020 12:00:00 1,9 -3,9 2 1 6 3 SSW 0,0
14.01.2020 11:00:00 -0,8 -2,7 1 1 5 3 ENE 0,0
14.01.2020 10:00:00 -4,0 -4,8 1 1 4 2 S 0,0
14.01.2020 09:00:00 -5,3 -6,0 0 0 3 2 N 0,0
14.01.2020 08:00:00 -4,7 -5,4 0 0 3 2 SE 0,0
14.01.2020 07:00:00 -4,5 -5,1 0 0 4 2 ENE -
14.01.2020 06:00:00 -5,1 -5,7 0 0 6 3 NE 0,0
14.01.2020 05:00:00 -5,5 -6,0 0 0 3 2 NNW 0,0
14.01.2020 04:00:00 -5,0 -5,7 0 0 4 2 SW 0,0
14.01.2020 03:00:00 -5,0 -5,7 0 0 5 3 E 0,0
14.01.2020 02:00:00 -4,9 -5,7 0 0 2 1 SW 0,0
14.01.2020 01:00:00 -4,7 -5,7 1 1 3 2 NE -
14.01.2020 00:00:00 -4,3 -5,7 0 0 3 2 NNE 0,0
13.01.2020 23:00:00 -3,5 -4,8 0 0 4 2 NE 0,0
13.01.2020 22:00:00 -2,8 -4,8 0 0 3 2 E 0,0
13.01.2020 21:00:00 -2,2 -4,8 0 0 4 2 E 0,0
13.01.2020 20:00:00 -1,2 -4,5 0 0 6 3 WSW 0,0
13.01.2020 19:00:00 0,2 -4,8 1 0 4 2 E -
13.01.2020 18:00:00 2,8 -4,8 0 0 5 3 WNW 0,0
13.01.2020 17:00:00 5,3 -5,4 1 1 5 3 W 0,0
13.01.2020 16:00:00 7,6 -7,5 2 1 6 3 SSW 0,0
13.01.2020 15:00:00 8,4 -6,7 3 2 6 3 SSW 0,0
13.01.2020 14:00:00 7,3 -5,4 2 1 5 3 SW 0,0
13.01.2020 13:00:00 4,1 -4,8 1 1 5 3 WSW -
13.01.2020 12:00:00 1,1 -4,5 1 1 6 3 SE 0,0
13.01.2020 11:00:00 -1,8 -3,3 1 1 4 2 E 0,0
13.01.2020 10:00:00 -4,9 -5,7 1 1 4 2 NNE 0,0
13.01.2020 09:00:00 -6,2 -6,7 0 0 2 1 SW 0,0
13.01.2020 08:00:00 -6,9 -7,5 0 0 3 2 SE 0,0
13.01.2020 07:00:00 -6,6 -7,1 0 0 3 2 NE -
13.01.2020 06:00:00 -6,5 -7,1 0 0 4 2 S 0,0
13.01.2020 05:00:00 -6,0 -6,7 0 0 3 2 W 0,0
13.01.2020 04:00:00 -5,9 -6,7 1 0 4 2 NNE 0,0
13.01.2020 03:00:00 -5,2 -6,0 0 0 4 2 SSW 0,0
13.01.2020 02:00:00 -4,9 -5,7 1 0 4 2 NNE 0,0
13.01.2020 01:00:00 -4,4 -5,4 0 0 4 2 S -
13.01.2020 00:00:00 -3,9 -5,1 1 0 3 2 NNE 0,0
12.01.2020 23:00:00 -3,3 -4,8 1 1 3 2 NNE 0,0
12.01.2020 22:00:00 -2,7 -4,8 0 0 3 1 SSE 0,0
12.01.2020 21:00:00 -2,2 -4,8 0 0 5 3 S 0,0
12.01.2020 20:00:00 -1,1 -4,5 0 0 3 2 NE 0,0
12.01.2020 19:00:00 0,5 -4,5 1 0 3 2 NE -
12.01.2020 18:00:00 2,9 -6,7 1 0 5 3 S 0,0
12.01.2020 17:00:00 8,8 -7,1 3 2 6 3 SSW 0,0
12.01.2020 16:00:00 10,2 -8,6 3 1 8 5 SSW 0,0
12.01.2020 15:00:00 12,1 -7,8 4 2 8 5 SSW 0,0
12.01.2020 14:00:00 10,9 -7,1 3 2 6 4 SW 0,0

tt = Température de l'air
td = dewpoint
ff = Vitesse du vent
fx = gusts
dd = Direction du vent
rr = Quantités de précipitations

stations d'obs. à proximité